createdAt,value
2023-02-19T00:00:33.537Z,10.10
2023-02-19T00:03:36.269Z,10.10
2023-02-19T00:06:37.956Z,10.00
2023-02-19T00:09:39.579Z,10.00
2023-02-19T00:12:41.166Z,10.00
2023-02-19T00:15:42.798Z,10.00
2023-02-19T00:18:45.281Z,10.00
2023-02-19T00:21:48.069Z,10.10
2023-02-19T00:24:49.902Z,10.00
2023-02-19T00:27:51.454Z,10.00
2023-02-19T00:30:53.052Z,10.00
2023-02-19T00:33:57.589Z,10.00
2023-02-19T00:36:59.182Z,10.00
2023-02-19T00:40:00.751Z,10.00
2023-02-19T00:43:02.364Z,10.00
2023-02-19T00:46:04.089Z,10.00
2023-02-19T00:49:08.015Z,10.00
2023-02-19T00:52:09.620Z,10.00
2023-02-19T00:55:11.204Z,10.00
2023-02-19T00:58:12.800Z,10.00
2023-02-19T01:01:14.850Z,10.00
2023-02-19T01:04:16.496Z,10.00
2023-02-19T01:07:18.466Z,10.00
2023-02-19T01:10:20.047Z,10.00
2023-02-19T01:13:21.780Z,9.90
2023-02-19T01:16:24.729Z,9.90
2023-02-19T01:19:26.400Z,9.90
2023-02-19T01:22:28.030Z,9.80
2023-02-19T01:25:29.649Z,9.80
2023-02-19T01:28:31.265Z,9.80
2023-02-19T01:31:33.442Z,9.70
2023-02-19T01:34:35.247Z,9.70
2023-02-19T01:37:37.296Z,9.70
2023-02-19T01:40:38.860Z,9.70
2023-02-19T01:43:58.634Z,9.70
2023-02-19T01:47:00.274Z,9.60
2023-02-19T01:50:01.910Z,9.60
2023-02-19T01:53:07.415Z,9.60
2023-02-19T01:56:10.771Z,9.60
2023-02-19T01:59:13.000Z,9.60
2023-02-19T02:02:17.007Z,9.50
2023-02-19T02:05:40.993Z,9.50
2023-02-19T02:09:01.190Z,9.50
2023-02-19T02:12:02.869Z,9.50
2023-02-19T02:15:04.915Z,9.50
2023-02-19T02:18:11.088Z,9.50
2023-02-19T02:21:18.452Z,9.50
2023-02-19T02:24:57.815Z,9.50
2023-02-19T02:28:13.889Z,9.50
2023-02-19T02:31:53.526Z,9.50
2023-02-19T02:35:03.792Z,9.50
2023-02-19T02:38:09.048Z,9.40
2023-02-19T02:41:13.193Z,9.40
2023-02-19T02:44:14.934Z,9.40
2023-02-19T02:47:36.591Z,9.40
2023-02-19T02:50:53.730Z,9.40
2023-02-19T02:54:19.986Z,9.40
2023-02-19T02:57:21.850Z,9.40
2023-02-19T03:00:26.073Z,9.40
2023-02-19T03:03:30.706Z,9.40
2023-02-19T03:06:35.798Z,9.40
2023-02-19T03:09:43.042Z,9.40
2023-02-19T03:13:04.399Z,9.40
2023-02-19T03:16:30.756Z,9.40
2023-02-19T03:19:37.688Z,9.50
2023-02-19T03:22:42.038Z,9.50
2023-02-19T03:26:03.291Z,9.50
2023-02-19T03:29:25.813Z,9.40
2023-02-19T03:32:36.552Z,9.50
2023-02-19T03:35:52.697Z,9.50
2023-02-19T03:39:04.970Z,9.60
2023-02-19T03:42:13.999Z,9.50
2023-02-19T03:45:24.524Z,9.50
2023-02-19T03:48:31.992Z,9.50
2023-02-19T03:52:01.273Z,9.60
2023-02-19T03:55:11.837Z,9.60
2023-02-19T03:58:22.569Z,9.50
2023-02-19T04:01:34.434Z,9.50
2023-02-19T04:04:43.441Z,9.50
2023-02-19T04:07:47.778Z,9.40
2023-02-19T04:10:50.482Z,9.40
2023-02-19T04:14:05.128Z,9.40
2023-02-19T04:17:29.501Z,9.40
2023-02-19T04:20:39.511Z,9.40
2023-02-19T04:23:44.593Z,9.40
2023-02-19T04:26:46.814Z,9.50
2023-02-19T04:29:48.417Z,9.40
2023-02-19T04:32:50.028Z,9.40
2023-02-19T04:35:51.705Z,9.40
2023-02-19T04:38:53.244Z,9.40
2023-02-19T04:41:54.970Z,9.40
2023-02-19T04:44:56.548Z,9.40
2023-02-19T04:47:58.860Z,9.40
2023-02-19T04:51:04.298Z,9.40
2023-02-19T04:54:06.141Z,9.50
2023-02-19T04:57:07.742Z,9.40
2023-02-19T05:00:10.212Z,9.50
2023-02-19T05:03:11.842Z,9.40
2023-02-19T05:06:14.085Z,9.50
2023-02-19T05:09:15.865Z,9.50
2023-02-19T05:12:17.532Z,9.50
2023-02-19T05:15:19.180Z,9.50
2023-02-19T05:18:20.833Z,9.50
2023-02-19T05:21:22.526Z,9.50
2023-02-19T05:24:26.177Z,9.50
2023-02-19T05:27:29.957Z,9.50
2023-02-19T05:30:31.614Z,9.40
2023-02-19T05:33:33.546Z,9.40
2023-02-19T05:36:37.046Z,9.30
2023-02-19T05:39:38.586Z,9.30
2023-02-19T05:42:40.181Z,9.30
2023-02-19T05:45:42.125Z,9.20
2023-02-19T05:48:43.746Z,9.20
2023-02-19T05:51:45.316Z,9.20
2023-02-19T05:54:46.879Z,9.20
2023-02-19T05:57:48.782Z,9.20
2023-02-19T06:00:50.815Z,9.20
2023-02-19T06:03:53.207Z,9.30
2023-02-19T06:06:55.663Z,9.30
2023-02-19T06:09:57.344Z,9.30
2023-02-19T06:12:58.886Z,9.30
2023-02-19T06:16:03.108Z,9.30
2023-02-19T06:19:05.076Z,9.30
2023-02-19T06:22:06.837Z,9.30
2023-02-19T06:25:12.692Z,9.20
2023-02-19T06:28:14.319Z,9.20
2023-02-19T06:31:17.257Z,9.20
2023-02-19T06:34:18.844Z,9.20
2023-02-19T06:37:20.430Z,9.20
2023-02-19T06:40:22.034Z,9.20
2023-02-19T06:43:23.610Z,9.20
2023-02-19T06:46:25.273Z,9.20
2023-02-19T06:49:27.010Z,9.20
2023-02-19T06:52:28.579Z,9.20
2023-02-19T06:55:30.113Z,9.20
2023-02-19T06:58:32.547Z,9.20
2023-02-19T07:01:36.097Z,9.30
2023-02-19T07:04:37.768Z,9.30
2023-02-19T07:07:39.342Z,9.30
2023-02-19T07:10:40.897Z,9.40
2023-02-19T07:13:42.548Z,9.40
2023-02-19T07:16:44.453Z,9.40
2023-02-19T07:19:46.031Z,9.50
2023-02-19T07:22:48.234Z,9.50
2023-02-19T07:25:49.840Z,9.50
2023-02-19T07:28:52.306Z,9.60
2023-02-19T07:31:54.077Z,9.60
2023-02-19T07:34:55.740Z,9.70
2023-02-19T07:37:57.517Z,9.70
2023-02-19T07:41:01.469Z,9.80
2023-02-19T07:44:03.131Z,9.90
2023-02-19T07:47:04.792Z,9.90
2023-02-19T07:50:06.787Z,9.90
2023-02-19T07:53:08.563Z,9.90
2023-02-19T07:56:11.666Z,9.90
2023-02-19T07:59:13.409Z,10.00
2023-02-19T08:02:38.739Z,10.00
2023-02-19T08:05:42.414Z,10.10
2023-02-19T08:08:44.026Z,10.20
2023-02-19T08:12:04.455Z,10.30
2023-02-19T08:15:06.203Z,10.40
2023-02-19T08:18:08.407Z,10.40
2023-02-19T08:21:10.701Z,10.50
2023-02-19T08:24:12.666Z,10.50
2023-02-19T08:27:14.332Z,10.60
2023-02-19T08:30:16.029Z,10.60
2023-02-19T08:33:20.176Z,10.70
2023-02-19T08:36:22.154Z,10.60
2023-02-19T08:39:23.800Z,10.60
2023-02-19T08:42:25.454Z,10.50
2023-02-19T08:45:27.150Z,10.50
2023-02-19T08:48:28.942Z,10.50
2023-02-19T08:51:30.584Z,10.50
2023-02-19T08:54:32.248Z,10.60
2023-02-19T08:57:37.561Z,10.70
2023-02-19T09:00:39.192Z,10.70
2023-02-19T09:03:41.338Z,10.80
2023-02-19T09:06:42.934Z,10.90
2023-02-19T09:09:44.521Z,11.00
2023-02-19T09:12:46.098Z,11.00
2023-02-19T09:15:47.922Z,11.10
2023-02-19T09:18:49.571Z,11.20
2023-02-19T09:21:51.140Z,11.20
2023-02-19T09:24:52.873Z,11.20
2023-02-19T09:27:55.945Z,11.30
2023-02-19T09:30:57.650Z,11.30
2023-02-19T09:33:59.314Z,11.30
2023-02-19T09:37:01.018Z,11.40
2023-02-19T09:40:02.608Z,11.40
2023-02-19T09:43:11.955Z,11.40
2023-02-19T09:46:45.005Z,11.50
2023-02-19T09:49:52.553Z,11.60
2023-02-19T09:52:59.534Z,11.60
2023-02-19T09:56:01.459Z,11.70
2023-02-19T09:59:03.370Z,11.70
2023-02-19T10:02:13.495Z,11.70
2023-02-19T10:05:16.119Z,11.70
2023-02-19T10:08:20.726Z,11.70
2023-02-19T10:11:25.367Z,11.70
2023-02-19T10:14:44.407Z,11.60
2023-02-19T10:17:46.020Z,11.50
2023-02-19T10:20:48.743Z,11.60
2023-02-19T10:23:55.429Z,11.60
2023-02-19T10:26:57.159Z,11.70
2023-02-19T10:30:03.473Z,11.80
2023-02-19T10:33:15.080Z,11.90
2023-02-19T10:36:40.926Z,11.90
2023-02-19T10:39:47.784Z,12.10
2023-02-19T10:42:53.724Z,12.10
2023-02-19T10:45:55.748Z,12.00
2023-02-19T10:49:00.337Z,12.00
2023-02-19T10:52:21.300Z,12.00
2023-02-19T10:55:30.248Z,11.90
2023-02-19T10:58:34.385Z,11.80
2023-02-19T11:01:37.811Z,11.70
2023-02-19T11:04:39.567Z,11.60
2023-02-19T11:07:47.494Z,11.60
2023-02-19T11:10:49.896Z,11.70
2023-02-19T11:13:52.100Z,11.90
2023-02-19T11:16:56.631Z,11.90
2023-02-19T11:20:04.692Z,12.00
2023-02-19T11:23:16.289Z,12.10
2023-02-19T11:26:22.749Z,12.10
2023-02-19T11:29:28.473Z,12.20
2023-02-19T11:32:30.783Z,12.30
2023-02-19T11:35:32.332Z,12.40
2023-02-19T11:38:33.907Z,12.60
2023-02-19T11:41:54.730Z,12.80
2023-02-19T11:45:51.211Z,12.90
2023-02-19T11:49:09.136Z,12.90
2023-02-19T11:52:19.573Z,13.00
2023-02-19T11:56:06.237Z,12.90
2023-02-19T11:59:14.191Z,12.80
2023-02-19T12:02:44.543Z,12.70
2023-02-19T12:06:04.968Z,12.60
2023-02-19T12:09:31.613Z,12.70
2023-02-19T12:13:06.314Z,12.80
2023-02-19T12:16:24.688Z,12.80
2023-02-19T12:19:56.572Z,12.80
2023-02-19T12:23:35.566Z,12.80
2023-02-19T12:26:55.526Z,12.70
2023-02-19T12:30:03.492Z,12.80
2023-02-19T12:33:27.746Z,12.90
2023-02-19T12:37:08.063Z,13.00
2023-02-19T12:40:25.226Z,13.20
2023-02-19T12:43:27.688Z,13.50
2023-02-19T12:46:39.367Z,13.60
2023-02-19T12:49:47.177Z,13.50
2023-02-19T12:52:57.773Z,13.40
2023-02-19T12:56:04.062Z,13.40
2023-02-19T12:59:12.377Z,13.50
2023-02-19T13:02:20.467Z,13.50
2023-02-19T13:05:47.755Z,13.60
2023-02-19T13:09:06.739Z,13.60
2023-02-19T13:12:27.894Z,13.70
2023-02-19T13:15:50.159Z,13.50
2023-02-19T13:18:58.882Z,13.40
2023-02-19T13:22:40.606Z,13.40
2023-02-19T13:25:57.620Z,13.40
2023-02-19T13:29:26.234Z,13.40
2023-02-19T13:33:02.999Z,13.20
2023-02-19T13:36:09.328Z,13.20
2023-02-19T13:42:34.987Z,13.20
2023-02-19T13:45:43.541Z,13.20
2023-02-19T13:48:45.394Z,13.20
2023-02-19T13:51:50.965Z,13.20
2023-02-19T13:54:52.537Z,13.00
2023-02-19T13:57:54.116Z,13.00
2023-02-19T14:00:55.764Z,13.00
2023-02-19T14:04:16.920Z,13.10
2023-02-19T14:07:18.469Z,13.00
2023-02-19T14:10:52.824Z,12.90
2023-02-19T14:13:54.865Z,12.90
2023-02-19T14:17:05.611Z,12.90
2023-02-19T14:20:11.480Z,12.80
2023-02-19T14:23:24.237Z,12.70
2023-02-19T14:26:27.628Z,12.70
2023-02-19T14:29:29.542Z,12.80
2023-02-19T14:32:31.233Z,12.80
2023-02-19T14:35:40.555Z,12.80
2023-02-19T14:38:50.505Z,12.90
2023-02-19T14:41:57.548Z,12.80
2023-02-19T14:45:02.921Z,12.60
2023-02-19T14:48:06.756Z,12.30
2023-02-19T14:51:20.132Z,12.00
2023-02-19T14:54:34.732Z,11.80
2023-02-19T14:57:40.763Z,11.50
2023-02-19T15:00:43.249Z,11.40
2023-02-19T15:03:49.304Z,11.30
2023-02-19T15:06:53.018Z,11.30
2023-02-19T15:09:58.646Z,11.30
2023-02-19T15:13:08.842Z,11.20
2023-02-19T15:16:10.655Z,11.30
2023-02-19T15:19:16.187Z,11.20
2023-02-19T15:22:22.885Z,11.20
2023-02-19T15:25:32.049Z,11.10
2023-02-19T15:28:35.787Z,11.10
2023-02-19T15:31:48.493Z,11.10
2023-02-19T15:35:01.704Z,11.00
2023-02-19T15:38:03.306Z,11.10
2023-02-19T15:41:05.183Z,11.00
2023-02-19T15:44:27.306Z,10.70
2023-02-19T15:47:58.661Z,10.60
2023-02-19T15:51:09.328Z,10.50
2023-02-19T15:54:27.608Z,10.50
2023-02-19T15:57:36.217Z,10.50
2023-02-19T16:00:44.059Z,10.50
2023-02-19T16:03:46.111Z,10.50
2023-02-19T16:07:00.377Z,10.50
2023-02-19T16:10:22.234Z,10.50
2023-02-19T16:13:26.313Z,10.50
2023-02-19T16:16:36.645Z,10.50
2023-02-19T16:19:59.583Z,10.50
2023-02-19T16:23:11.308Z,10.40
2023-02-19T16:26:13.158Z,10.40
2023-02-19T16:29:23.338Z,10.50
2023-02-19T16:32:26.395Z,10.40
2023-02-19T16:35:39.914Z,10.30
2023-02-19T16:38:41.751Z,10.30
2023-02-19T16:41:46.530Z,10.20
2023-02-19T16:44:48.579Z,10.30
2023-02-19T16:47:51.272Z,10.30
2023-02-19T16:50:53.335Z,10.30
2023-02-19T16:53:54.931Z,10.30
2023-02-19T16:56:56.498Z,10.30
2023-02-19T16:59:58.252Z,10.30
2023-02-19T17:03:08.953Z,10.20
2023-02-19T17:06:11.709Z,10.30
2023-02-19T17:09:13.353Z,10.30
2023-02-19T17:12:17.012Z,10.30
2023-02-19T17:15:18.857Z,10.30
2023-02-19T17:18:20.499Z,10.30
2023-02-19T17:21:25.176Z,10.40
2023-02-19T17:24:26.821Z,10.40
2023-02-19T17:27:28.429Z,10.40
2023-02-19T17:30:32.993Z,10.30
2023-02-19T17:33:40.507Z,10.30
2023-02-19T17:36:44.650Z,10.20
2023-02-19T17:39:46.256Z,10.20
2023-02-19T17:42:47.939Z,10.20
2023-02-19T17:45:49.660Z,10.20
2023-02-19T17:48:52.915Z,10.10
2023-02-19T17:51:54.844Z,10.10
2023-02-19T17:54:56.610Z,10.10
2023-02-19T17:57:58.417Z,10.10
2023-02-19T18:01:00.207Z,10.00
2023-02-19T18:04:02.557Z,10.00
2023-02-19T18:07:04.342Z,10.00
2023-02-19T18:10:07.006Z,9.90
2023-02-19T18:13:09.313Z,9.90
2023-02-19T18:16:11.391Z,9.90
2023-02-19T18:19:12.995Z,9.80
2023-02-19T18:22:14.631Z,9.80
2023-02-19T18:25:17.615Z,9.80
2023-02-19T18:28:19.275Z,9.80
2023-02-19T18:31:21.100Z,9.80
2023-02-19T18:34:22.763Z,9.80
2023-02-19T18:37:26.170Z,9.80
2023-02-19T18:40:28.638Z,9.80
2023-02-19T18:43:30.596Z,9.80
2023-02-19T18:46:32.452Z,9.70
2023-02-19T18:49:34.162Z,9.70
2023-02-19T18:52:35.954Z,9.70
2023-02-19T18:55:37.608Z,9.70
2023-02-19T18:58:39.261Z,9.70
2023-02-19T19:01:42.291Z,9.70
2023-02-19T19:04:49.308Z,9.60
2023-02-19T19:07:56.298Z,9.60
2023-02-19T19:10:57.868Z,9.60
2023-02-19T19:13:59.555Z,9.60
2023-02-19T19:17:01.134Z,9.60
2023-02-19T19:20:03.101Z,9.50
2023-02-19T19:23:05.983Z,9.50
2023-02-19T19:26:08.100Z,9.50
2023-02-19T19:29:09.698Z,9.50
2023-02-19T19:32:12.265Z,9.50
2023-02-19T19:35:15.465Z,9.50
2023-02-19T19:38:17.290Z,9.50
2023-02-19T19:41:20.227Z,9.50
2023-02-19T19:44:22.627Z,9.50
2023-02-19T19:47:24.424Z,9.50
2023-02-19T19:50:26.114Z,9.50
2023-02-19T19:53:27.670Z,9.50
2023-02-19T19:56:29.793Z,9.50
2023-02-19T19:59:31.747Z,9.50
2023-02-19T20:02:36.426Z,9.50
2023-02-19T20:05:38.128Z,9.50
2023-02-19T20:08:39.754Z,9.50
2023-02-19T20:11:49.877Z,9.50
2023-02-19T20:14:51.490Z,9.50
2023-02-19T20:17:53.107Z,9.50
2023-02-19T20:20:54.675Z,9.50
2023-02-19T20:23:56.446Z,9.50
2023-02-19T20:27:00.371Z,9.50
2023-02-19T20:30:02.091Z,9.50
2023-02-19T20:33:03.892Z,9.50
2023-02-19T20:36:05.973Z,9.50
2023-02-19T20:39:07.525Z,9.50
2023-02-19T20:42:09.129Z,9.50
2023-02-19T20:45:11.115Z,9.50
2023-02-19T20:48:15.828Z,9.50
2023-02-19T20:51:17.436Z,9.50
2023-02-19T20:54:21.105Z,9.40
2023-02-19T20:57:23.669Z,9.40
2023-02-19T21:00:25.326Z,9.40
2023-02-19T21:03:26.933Z,9.40
2023-02-19T21:06:28.593Z,9.30
2023-02-19T21:09:30.257Z,9.30
2023-02-19T21:12:33.477Z,9.30
2023-02-19T21:15:35.711Z,9.30
2023-02-19T21:18:37.269Z,9.20
2023-02-19T21:21:40.206Z,9.20
2023-02-19T21:24:41.765Z,9.20
2023-02-19T21:27:43.352Z,9.20
2023-02-19T21:30:45.326Z,9.20
2023-02-19T21:33:47.061Z,9.10
2023-02-19T21:36:48.831Z,9.10
2023-02-19T21:39:50.506Z,9.20
2023-02-19T21:42:52.115Z,9.20
2023-02-19T21:45:53.732Z,9.10
2023-02-19T21:48:56.749Z,9.10
2023-02-19T21:51:58.385Z,9.10
2023-02-19T21:54:59.942Z,9.10
2023-02-19T21:58:01.621Z,9.10
2023-02-19T22:01:03.292Z,9.10
2023-02-19T22:04:07.151Z,9.10
2023-02-19T22:07:09.090Z,9.10
2023-02-19T22:10:10.763Z,9.10
2023-02-19T22:13:12.677Z,9.10
2023-02-19T22:16:14.712Z,9.00
2023-02-19T22:19:16.580Z,9.10
2023-02-19T22:22:18.565Z,9.10
2023-02-19T22:25:20.153Z,9.10
2023-02-19T22:28:21.810Z,9.00
2023-02-19T22:31:24.620Z,9.00
2023-02-19T22:34:26.286Z,9.00
2023-02-19T22:37:29.600Z,9.00
2023-02-19T22:40:31.314Z,9.00
2023-02-19T22:43:32.953Z,9.00
2023-02-19T22:46:34.567Z,9.00
2023-02-19T22:49:38.822Z,9.00
2023-02-19T22:52:40.469Z,8.90
2023-02-19T22:55:42.068Z,8.90
2023-02-19T22:58:44.595Z,8.90
2023-02-19T23:01:46.343Z,8.90
2023-02-19T23:04:48.108Z,8.90
2023-02-19T23:07:50.243Z,8.90
2023-02-19T23:10:51.974Z,8.90
2023-02-19T23:13:54.118Z,8.80
2023-02-19T23:16:55.738Z,8.80
2023-02-19T23:19:57.359Z,8.70
2023-02-19T23:22:59.083Z,8.70
2023-02-19T23:26:00.804Z,8.60
2023-02-19T23:29:02.944Z,8.60
2023-02-19T23:32:04.776Z,8.60
2023-02-19T23:35:06.668Z,8.60
2023-02-19T23:38:10.470Z,8.50
2023-02-19T23:41:14.857Z,8.50
2023-02-19T23:44:17.193Z,8.40
2023-02-19T23:47:20.067Z,8.40
2023-02-19T23:50:21.797Z,8.40
2023-02-19T23:53:23.570Z,8.30
2023-02-19T23:56:27.689Z,8.20
2023-02-19T23:59:29.360Z,8.20
